sensor_id;sensor_type;location;lat;lon;timestamp;P1;durP1;ratioP1;P2;durP2;ratioP2
6840;SDS011;3458;53.678;14.080;2024-02-26T00:01:25;1.87;;;1.70;;
6840;SDS011;3458;53.678;14.080;2024-02-26T00:03:51;2.30;;;2.10;;
6840;SDS011;3458;53.678;14.080;2024-02-26T00:06:17;2.03;;;1.70;;
6840;SDS011;3458;53.678;14.080;2024-02-26T00:08:43;1.80;;;1.70;;
6840;SDS011;3458;53.678;14.080;2024-02-26T00:11:09;1.60;;;1.50;;
6840;SDS011;3458;53.678;14.080;2024-02-26T00:13:35;3.07;;;2.40;;
6840;SDS011;3458;53.678;14.080;2024-02-26T00:16:01;2.57;;;2.30;;
6840;SDS011;3458;53.678;14.080;2024-02-26T00:18:27;4.70;;;2.90;;
6840;SDS011;3458;53.678;14.080;2024-02-26T00:20:52;3.80;;;1.90;;
6840;SDS011;3458;53.678;14.080;2024-02-26T00:23:18;2.13;;;1.83;;
6840;SDS011;3458;53.678;14.080;2024-02-26T00:25:43;1.83;;;1.73;;
6840;SDS011;3458;53.678;14.080;2024-02-26T00:28:09;7.60;;;2.63;;
6840;SDS011;3458;53.678;14.080;2024-02-26T00:30:35;2.60;;;2.03;;
6840;SDS011;3458;53.678;14.080;2024-02-26T00:33:01;4.50;;;2.00;;
6840;SDS011;3458;53.678;14.080;2024-02-26T00:35:26;2.93;;;1.87;;
6840;SDS011;3458;53.678;14.080;2024-02-26T00:37:52;7.37;;;1.67;;
6840;SDS011;3458;53.678;14.080;2024-02-26T00:40:17;2.73;;;1.80;;
6840;SDS011;3458;53.678;14.080;2024-02-26T00:42:43;2.07;;;1.87;;
6840;SDS011;3458;53.678;14.080;2024-02-26T00:45:11;1.80;;;1.70;;
6840;SDS011;3458;53.678;14.080;2024-02-26T00:47:37;1.43;;;1.33;;
6840;SDS011;3458;53.678;14.080;2024-02-26T00:50:03;3.80;;;2.10;;
6840;SDS011;3458;53.678;14.080;2024-02-26T00:52:28;1.60;;;1.50;;
6840;SDS011;3458;53.678;14.080;2024-02-26T00:54:54;2.10;;;1.67;;
6840;SDS011;3458;53.678;14.080;2024-02-26T00:57:19;3.10;;;1.57;;
6840;SDS011;3458;53.678;14.080;2024-02-26T00:59:45;1.80;;;1.60;;
6840;SDS011;3458;53.678;14.080;2024-02-26T01:02:10;2.50;;;1.93;;
6840;SDS011;3458;53.678;14.080;2024-02-26T01:04:36;1.90;;;1.80;;
6840;SDS011;3458;53.678;14.080;2024-02-26T01:07:01;1.50;;;1.40;;
6840;SDS011;3458;53.678;14.080;2024-02-26T01:09:28;2.10;;;1.60;;
6840;SDS011;3458;53.678;14.080;2024-02-26T01:11:53;3.23;;;1.63;;
6840;SDS011;3458;53.678;14.080;2024-02-26T01:14:19;2.10;;;1.90;;
6840;SDS011;3458;53.678;14.080;2024-02-26T01:16:44;1.70;;;1.60;;
6840;SDS011;3458;53.678;14.080;2024-02-26T01:19:09;1.90;;;1.80;;
6840;SDS011;3458;53.678;14.080;2024-02-26T01:21:35;2.00;;;1.87;;
6840;SDS011;3458;53.678;14.080;2024-02-26T01:24:01;1.80;;;1.40;;
6840;SDS011;3458;53.678;14.080;2024-02-26T01:26:26;1.60;;;1.50;;
6840;SDS011;3458;53.678;14.080;2024-02-26T01:28:52;2.53;;;1.90;;
6840;SDS011;3458;53.678;14.080;2024-02-26T01:31:17;4.03;;;1.60;;
6840;SDS011;3458;53.678;14.080;2024-02-26T01:33:42;1.60;;;1.50;;
6840;SDS011;3458;53.678;14.080;2024-02-26T01:36:08;1.77;;;1.30;;
6840;SDS011;3458;53.678;14.080;2024-02-26T01:38:33;2.37;;;1.67;;
6840;SDS011;3458;53.678;14.080;2024-02-26T01:40:59;5.80;;;1.80;;
6840;SDS011;3458;53.678;14.080;2024-02-26T01:43:24;2.50;;;1.80;;
6840;SDS011;3458;53.678;14.080;2024-02-26T01:45:50;2.33;;;2.00;;
6840;SDS011;3458;53.678;14.080;2024-02-26T01:48:15;2.20;;;2.00;;
6840;SDS011;3458;53.678;14.080;2024-02-26T01:50:41;2.10;;;1.90;;
6840;SDS011;3458;53.678;14.080;2024-02-26T01:53:07;1.87;;;1.63;;
6840;SDS011;3458;53.678;14.080;2024-02-26T01:55:34;3.00;;;2.40;;
6840;SDS011;3458;53.678;14.080;2024-02-26T01:57:59;7.23;;;2.30;;
6840;SDS011;3458;53.678;14.080;2024-02-26T02:00:25;1.87;;;1.63;;
6840;SDS011;3458;53.678;14.080;2024-02-26T02:02:51;2.77;;;2.00;;
6840;SDS011;3458;53.678;14.080;2024-02-26T02:05:17;2.17;;;1.67;;
6840;SDS011;3458;53.678;14.080;2024-02-26T02:07:45;3.13;;;1.97;;
6840;SDS011;3458;53.678;14.080;2024-02-26T02:10:11;2.60;;;1.80;;
6840;SDS011;3458;53.678;14.080;2024-02-26T02:12:37;4.47;;;2.07;;
6840;SDS011;3458;53.678;14.080;2024-02-26T02:15:05;1.87;;;1.63;;
6840;SDS011;3458;53.678;14.080;2024-02-26T02:17:31;2.13;;;1.87;;
6840;SDS011;3458;53.678;14.080;2024-02-26T02:19:56;1.87;;;1.77;;
6840;SDS011;3458;53.678;14.080;2024-02-26T02:22:22;2.70;;;2.13;;
6840;SDS011;3458;53.678;14.080;2024-02-26T02:24:48;2.23;;;1.80;;
6840;SDS011;3458;53.678;14.080;2024-02-26T02:27:14;2.60;;;2.03;;
6840;SDS011;3458;53.678;14.080;2024-02-26T02:29:40;2.17;;;1.80;;
6840;SDS011;3458;53.678;14.080;2024-02-26T02:32:06;2.60;;;2.40;;
6840;SDS011;3458;53.678;14.080;2024-02-26T02:34:31;1.57;;;1.47;;
6840;SDS011;3458;53.678;14.080;2024-02-26T02:36:59;3.97;;;1.97;;
6840;SDS011;3458;53.678;14.080;2024-02-26T02:39:24;3.10;;;2.30;;
6840;SDS011;3458;53.678;14.080;2024-02-26T02:41:50;6.83;;;3.13;;
6840;SDS011;3458;53.678;14.080;2024-02-26T02:44:15;1.70;;;1.60;;
6840;SDS011;3458;53.678;14.080;2024-02-26T02:46:41;2.13;;;1.90;;
6840;SDS011;3458;53.678;14.080;2024-02-26T02:49:08;1.83;;;1.70;;
6840;SDS011;3458;53.678;14.080;2024-02-26T02:51:35;2.30;;;2.10;;
6840;SDS011;3458;53.678;14.080;2024-02-26T02:54:00;3.60;;;2.10;;
6840;SDS011;3458;53.678;14.080;2024-02-26T02:56:26;3.60;;;2.33;;
6840;SDS011;3458;53.678;14.080;2024-02-26T02:58:51;5.70;;;2.17;;
6840;SDS011;3458;53.678;14.080;2024-02-26T03:01:17;2.23;;;2.03;;
6840;SDS011;3458;53.678;14.080;2024-02-26T03:03:42;3.03;;;2.50;;
6840;SDS011;3458;53.678;14.080;2024-02-26T03:06:08;2.10;;;2.00;;
6840;SDS011;3458;53.678;14.080;2024-02-26T03:08:33;2.40;;;1.90;;
6840;SDS011;3458;53.678;14.080;2024-02-26T03:11:02;3.60;;;2.10;;
6840;SDS011;3458;53.678;14.080;2024-02-26T03:13:28;2.43;;;2.10;;
6840;SDS011;3458;53.678;14.080;2024-02-26T03:15:54;6.97;;;3.20;;
6840;SDS011;3458;53.678;14.080;2024-02-26T03:18:19;4.83;;;2.70;;
6840;SDS011;3458;53.678;14.080;2024-02-26T03:20:45;4.37;;;3.30;;
6840;SDS011;3458;53.678;14.080;2024-02-26T03:23:10;3.03;;;2.43;;
6840;SDS011;3458;53.678;14.080;2024-02-26T03:25:41;5.90;;;2.97;;
6840;SDS011;3458;53.678;14.080;2024-02-26T03:28:07;5.20;;;2.60;;
6840;SDS011;3458;53.678;14.080;2024-02-26T03:30:33;4.83;;;2.50;;
6840;SDS011;3458;53.678;14.080;2024-02-26T03:32:58;2.50;;;2.20;;
6840;SDS011;3458;53.678;14.080;2024-02-26T03:35:24;2.93;;;2.67;;
6840;SDS011;3458;53.678;14.080;2024-02-26T03:37:49;5.50;;;2.23;;
6840;SDS011;3458;53.678;14.080;2024-02-26T03:40:16;5.67;;;3.20;;
6840;SDS011;3458;53.678;14.080;2024-02-26T03:42:44;10.73;;;2.50;;
6840;SDS011;3458;53.678;14.080;2024-02-26T03:45:09;3.00;;;2.70;;
6840;SDS011;3458;53.678;14.080;2024-02-26T03:47:37;2.43;;;2.13;;
6840;SDS011;3458;53.678;14.080;2024-02-26T03:50:05;2.70;;;2.33;;
6840;SDS011;3458;53.678;14.080;2024-02-26T03:52:31;1.77;;;1.67;;
6840;SDS011;3458;53.678;14.080;2024-02-26T03:54:57;2.70;;;1.73;;
6840;SDS011;3458;53.678;14.080;2024-02-26T03:57:23;3.50;;;1.67;;
6840;SDS011;3458;53.678;14.080;2024-02-26T03:59:48;1.50;;;1.40;;
6840;SDS011;3458;53.678;14.080;2024-02-26T04:02:13;2.27;;;1.97;;
6840;SDS011;3458;53.678;14.080;2024-02-26T04:04:39;1.80;;;1.70;;
6840;SDS011;3458;53.678;14.080;2024-02-26T04:07:04;3.67;;;2.40;;
6840;SDS011;3458;53.678;14.080;2024-02-26T04:09:33;2.07;;;1.87;;
6840;SDS011;3458;53.678;14.080;2024-02-26T04:11:59;2.20;;;2.00;;
6840;SDS011;3458;53.678;14.080;2024-02-26T04:14:24;2.10;;;1.90;;
6840;SDS011;3458;53.678;14.080;2024-02-26T04:16:50;2.27;;;2.07;;
6840;SDS011;3458;53.678;14.080;2024-02-26T04:19:17;2.87;;;2.27;;
6840;SDS011;3458;53.678;14.080;2024-02-26T04:21:42;2.10;;;1.70;;
6840;SDS011;3458;53.678;14.080;2024-02-26T04:24:08;1.83;;;1.73;;
6840;SDS011;3458;53.678;14.080;2024-02-26T04:26:34;4.60;;;2.40;;
6840;SDS011;3458;53.678;14.080;2024-02-26T04:28:59;3.03;;;2.23;;
6840;SDS011;3458;53.678;14.080;2024-02-26T04:31:25;2.70;;;2.50;;
6840;SDS011;3458;53.678;14.080;2024-02-26T04:33:51;3.73;;;2.87;;
6840;SDS011;3458;53.678;14.080;2024-02-26T04:36:17;4.00;;;2.20;;
6840;SDS011;3458;53.678;14.080;2024-02-26T04:38:45;3.70;;;2.70;;
6840;SDS011;3458;53.678;14.080;2024-02-26T04:41:11;3.43;;;2.40;;
6840;SDS011;3458;53.678;14.080;2024-02-26T04:43:37;2.80;;;2.53;;
6840;SDS011;3458;53.678;14.080;2024-02-26T04:46:06;2.60;;;2.40;;
6840;SDS011;3458;53.678;14.080;2024-02-26T04:48:33;2.40;;;2.30;;
6840;SDS011;3458;53.678;14.080;2024-02-26T04:50:59;4.07;;;2.70;;
6840;SDS011;3458;53.678;14.080;2024-02-26T04:53:24;4.80;;;2.97;;
6840;SDS011;3458;53.678;14.080;2024-02-26T04:55:50;3.20;;;2.80;;
6840;SDS011;3458;53.678;14.080;2024-02-26T04:58:15;5.33;;;2.70;;
6840;SDS011;3458;53.678;14.080;2024-02-26T05:00:41;3.13;;;2.77;;
6840;SDS011;3458;53.678;14.080;2024-02-26T05:03:06;5.27;;;2.97;;
6840;SDS011;3458;53.678;14.080;2024-02-26T05:05:32;3.33;;;3.03;;
6840;SDS011;3458;53.678;14.080;2024-02-26T05:07:58;3.33;;;3.03;;
6840;SDS011;3458;53.678;14.080;2024-02-26T05:10:23;4.17;;;3.70;;
6840;SDS011;3458;53.678;14.080;2024-02-26T05:12:49;5.27;;;3.30;;
6840;SDS011;3458;53.678;14.080;2024-02-26T05:15:14;6.47;;;3.77;;
6840;SDS011;3458;53.678;14.080;2024-02-26T05:17:43;6.17;;;5.10;;
6840;SDS011;3458;53.678;14.080;2024-02-26T05:20:09;6.00;;;5.17;;
6840;SDS011;3458;53.678;14.080;2024-02-26T05:22:35;7.70;;;5.10;;
6840;SDS011;3458;53.678;14.080;2024-02-26T05:25:00;10.93;;;5.70;;
6840;SDS011;3458;53.678;14.080;2024-02-26T05:27:26;9.50;;;5.47;;
6840;SDS011;3458;53.678;14.080;2024-02-26T05:29:51;5.43;;;4.70;;
6840;SDS011;3458;53.678;14.080;2024-02-26T05:32:19;10.30;;;5.73;;
6840;SDS011;3458;53.678;14.080;2024-02-26T05:34:44;5.57;;;5.03;;
6840;SDS011;3458;53.678;14.080;2024-02-26T05:37:10;5.97;;;4.90;;
6840;SDS011;3458;53.678;14.080;2024-02-26T05:39:36;3.43;;;3.13;;
6840;SDS011;3458;53.678;14.080;2024-02-26T05:42:01;4.90;;;4.00;;
6840;SDS011;3458;53.678;14.080;2024-02-26T05:44:28;4.20;;;3.80;;
6840;SDS011;3458;53.678;14.080;2024-02-26T05:46:53;4.43;;;4.00;;
6840;SDS011;3458;53.678;14.080;2024-02-26T05:49:19;11.37;;;5.77;;
6840;SDS011;3458;53.678;14.080;2024-02-26T05:51:44;22.50;;;10.40;;
6840;SDS011;3458;53.678;14.080;2024-02-26T05:54:10;24.00;;;13.60;;
6840;SDS011;3458;53.678;14.080;2024-02-26T05:56:36;13.77;;;8.00;;
6840;SDS011;3458;53.678;14.080;2024-02-26T05:59:02;30.60;;;15.23;;
6840;SDS011;3458;53.678;14.080;2024-02-26T06:01:27;37.27;;;17.80;;
6840;SDS011;3458;53.678;14.080;2024-02-26T06:03:53;15.07;;;8.07;;
6840;SDS011;3458;53.678;14.080;2024-02-26T06:06:18;15.37;;;8.10;;
6840;SDS011;3458;53.678;14.080;2024-02-26T06:08:44;16.23;;;8.27;;
6840;SDS011;3458;53.678;14.080;2024-02-26T06:11:09;19.60;;;9.33;;
6840;SDS011;3458;53.678;14.080;2024-02-26T06:13:35;17.07;;;9.43;;
6840;SDS011;3458;53.678;14.080;2024-02-26T06:16:01;13.17;;;7.33;;
6840;SDS011;3458;53.678;14.080;2024-02-26T06:18:27;13.87;;;6.67;;
6840;SDS011;3458;53.678;14.080;2024-02-26T06:20:52;9.77;;;6.73;;
6840;SDS011;3458;53.678;14.080;2024-02-26T06:23:18;13.17;;;6.90;;
6840;SDS011;3458;53.678;14.080;2024-02-26T06:25:43;11.77;;;7.43;;
6840;SDS011;3458;53.678;14.080;2024-02-26T06:28:09;16.03;;;7.77;;
6840;SDS011;3458;53.678;14.080;2024-02-26T06:30:34;13.40;;;7.23;;
6840;SDS011;3458;53.678;14.080;2024-02-26T06:33:00;13.00;;;6.50;;
6840;SDS011;3458;53.678;14.080;2024-02-26T06:35:26;11.37;;;7.17;;
6840;SDS011;3458;53.678;14.080;2024-02-26T06:37:52;13.93;;;8.87;;
6840;SDS011;3458;53.678;14.080;2024-02-26T06:40:18;19.90;;;11.57;;
6840;SDS011;3458;53.678;14.080;2024-02-26T06:42:44;25.17;;;10.67;;
6840;SDS011;3458;53.678;14.080;2024-02-26T06:45:10;22.00;;;12.50;;
6840;SDS011;3458;53.678;14.080;2024-02-26T06:47:35;21.70;;;11.70;;
6840;SDS011;3458;53.678;14.080;2024-02-26T06:50:01;20.23;;;11.27;;
6840;SDS011;3458;53.678;14.080;2024-02-26T06:52:27;23.80;;;10.10;;
6840;SDS011;3458;53.678;14.080;2024-02-26T06:54:52;23.70;;;11.17;;
6840;SDS011;3458;53.678;14.080;2024-02-26T06:57:21;22.63;;;10.80;;
6840;SDS011;3458;53.678;14.080;2024-02-26T06:59:46;21.67;;;10.93;;
6840;SDS011;3458;53.678;14.080;2024-02-26T07:02:13;21.90;;;11.70;;
6840;SDS011;3458;53.678;14.080;2024-02-26T07:04:38;24.70;;;13.67;;
6840;SDS011;3458;53.678;14.080;2024-02-26T07:07:04;22.33;;;12.60;;
6840;SDS011;3458;53.678;14.080;2024-02-26T07:09:29;22.60;;;11.70;;
6840;SDS011;3458;53.678;14.080;2024-02-26T07:11:55;18.60;;;11.63;;
6840;SDS011;3458;53.678;14.080;2024-02-26T07:14:20;19.30;;;10.63;;
6840;SDS011;3458;53.678;14.080;2024-02-26T07:16:46;16.93;;;10.10;;
6840;SDS011;3458;53.678;14.080;2024-02-26T07:19:11;15.10;;;9.70;;
6840;SDS011;3458;53.678;14.080;2024-02-26T07:21:37;15.67;;;9.53;;
6840;SDS011;3458;53.678;14.080;2024-02-26T07:24:04;23.03;;;9.50;;
6840;SDS011;3458;53.678;14.080;2024-02-26T07:26:30;21.73;;;9.70;;
6840;SDS011;3458;53.678;14.080;2024-02-26T07:28:55;16.10;;;9.27;;
6840;SDS011;3458;53.678;14.080;2024-02-26T07:31:21;22.30;;;10.67;;
6840;SDS011;3458;53.678;14.080;2024-02-26T07:33:47;30.93;;;11.20;;
6840;SDS011;3458;53.678;14.080;2024-02-26T07:36:12;25.10;;;11.93;;
6840;SDS011;3458;53.678;14.080;2024-02-26T07:38:38;19.70;;;10.03;;
6840;SDS011;3458;53.678;14.080;2024-02-26T07:41:03;20.37;;;11.17;;
6840;SDS011;3458;53.678;14.080;2024-02-26T07:43:29;22.00;;;12.00;;
6840;SDS011;3458;53.678;14.080;2024-02-26T07:45:55;17.53;;;11.63;;
6840;SDS011;3458;53.678;14.080;2024-02-26T07:48:20;20.13;;;12.20;;
6840;SDS011;3458;53.678;14.080;2024-02-26T07:50:46;18.00;;;9.50;;
6840;SDS011;3458;53.678;14.080;2024-02-26T07:53:11;14.50;;;8.80;;
6840;SDS011;3458;53.678;14.080;2024-02-26T07:55:38;14.30;;;8.30;;
6840;SDS011;3458;53.678;14.080;2024-02-26T07:58:03;15.03;;;8.90;;
6840;SDS011;3458;53.678;14.080;2024-02-26T08:00:29;15.60;;;9.20;;
6840;SDS011;3458;53.678;14.080;2024-02-26T08:02:54;16.67;;;9.07;;
6840;SDS011;3458;53.678;14.080;2024-02-26T08:05:20;16.43;;;9.43;;
6840;SDS011;3458;53.678;14.080;2024-02-26T08:07:45;19.60;;;10.40;;
6840;SDS011;3458;53.678;14.080;2024-02-26T08:10:11;17.37;;;10.57;;
6840;SDS011;3458;53.678;14.080;2024-02-26T08:12:36;13.67;;;8.80;;
6840;SDS011;3458;53.678;14.080;2024-02-26T08:15:02;9.90;;;7.40;;
6840;SDS011;3458;53.678;14.080;2024-02-26T08:17:28;11.20;;;7.73;;
6840;SDS011;3458;53.678;14.080;2024-02-26T08:19:53;9.37;;;6.50;;
6840;SDS011;3458;53.678;14.080;2024-02-26T08:22:19;8.23;;;5.03;;
6840;SDS011;3458;53.678;14.080;2024-02-26T08:24:45;11.40;;;6.03;;
6840;SDS011;3458;53.678;14.080;2024-02-26T08:27:10;5.43;;;4.50;;
6840;SDS011;3458;53.678;14.080;2024-02-26T08:29:36;8.13;;;5.37;;
6840;SDS011;3458;53.678;14.080;2024-02-26T08:32:01;12.10;;;5.27;;
6840;SDS011;3458;53.678;14.080;2024-02-26T08:34:27;8.97;;;5.77;;
6840;SDS011;3458;53.678;14.080;2024-02-26T08:36:52;8.93;;;6.00;;
6840;SDS011;3458;53.678;14.080;2024-02-26T08:39:18;6.30;;;4.40;;
6840;SDS011;3458;53.678;14.080;2024-02-26T08:41:43;5.40;;;4.30;;
6840;SDS011;3458;53.678;14.080;2024-02-26T08:44:09;7.40;;;4.80;;
6840;SDS011;3458;53.678;14.080;2024-02-26T08:46:35;5.00;;;4.13;;
6840;SDS011;3458;53.678;14.080;2024-02-26T08:49:01;5.90;;;5.00;;
6840;SDS011;3458;53.678;14.080;2024-02-26T08:51:26;7.80;;;4.90;;
6840;SDS011;3458;53.678;14.080;2024-02-26T08:53:52;6.50;;;4.47;;
6840;SDS011;3458;53.678;14.080;2024-02-26T08:56:18;8.53;;;5.23;;
6840;SDS011;3458;53.678;14.080;2024-02-26T08:58:46;6.80;;;4.67;;
6840;SDS011;3458;53.678;14.080;2024-02-26T09:01:14;8.03;;;5.17;;
6840;SDS011;3458;53.678;14.080;2024-02-26T09:03:39;5.90;;;4.23;;
6840;SDS011;3458;53.678;14.080;2024-02-26T09:06:05;8.80;;;4.77;;
6840;SDS011;3458;53.678;14.080;2024-02-26T09:08:34;5.80;;;4.40;;
6840;SDS011;3458;53.678;14.080;2024-02-26T09:11:01;7.10;;;4.37;;
6840;SDS011;3458;53.678;14.080;2024-02-26T09:13:26;7.40;;;5.60;;
6840;SDS011;3458;53.678;14.080;2024-02-26T09:15:52;8.83;;;5.33;;
6840;SDS011;3458;53.678;14.080;2024-02-26T09:18:17;7.70;;;5.10;;
6840;SDS011;3458;53.678;14.080;2024-02-26T09:20:43;7.57;;;5.07;;
6840;SDS011;3458;53.678;14.080;2024-02-26T09:23:09;8.80;;;6.03;;
6840;SDS011;3458;53.678;14.080;2024-02-26T09:25:34;8.70;;;6.53;;
6840;SDS011;3458;53.678;14.080;2024-02-26T09:28:00;8.60;;;5.30;;
6840;SDS011;3458;53.678;14.080;2024-02-26T09:30:26;6.47;;;5.33;;
6840;SDS011;3458;53.678;14.080;2024-02-26T09:32:52;6.17;;;5.13;;
6840;SDS011;3458;53.678;14.080;2024-02-26T09:35:17;10.43;;;5.30;;
6840;SDS011;3458;53.678;14.080;2024-02-26T09:37:43;9.27;;;4.60;;
6840;SDS011;3458;53.678;14.080;2024-02-26T09:40:09;7.30;;;5.40;;
6840;SDS011;3458;53.678;14.080;2024-02-26T09:42:37;6.27;;;5.00;;
6840;SDS011;3458;53.678;14.080;2024-02-26T09:45:05;9.30;;;5.37;;
6840;SDS011;3458;53.678;14.080;2024-02-26T09:47:34;7.93;;;5.43;;
6840;SDS011;3458;53.678;14.080;2024-02-26T09:50:01;7.40;;;5.40;;
6840;SDS011;3458;53.678;14.080;2024-02-26T09:52:28;9.90;;;5.53;;
6840;SDS011;3458;53.678;14.080;2024-02-26T09:54:56;8.40;;;4.87;;
6840;SDS011;3458;53.678;14.080;2024-02-26T09:57:21;7.40;;;5.30;;
6840;SDS011;3458;53.678;14.080;2024-02-26T09:59:49;7.57;;;6.03;;
6840;SDS011;3458;53.678;14.080;2024-02-26T10:02:18;9.80;;;6.53;;
6840;SDS011;3458;53.678;14.080;2024-02-26T10:04:45;9.10;;;6.47;;
6840;SDS011;3458;53.678;14.080;2024-02-26T10:07:12;13.20;;;6.77;;
6840;SDS011;3458;53.678;14.080;2024-02-26T10:09:38;10.50;;;6.00;;
6840;SDS011;3458;53.678;14.080;2024-02-26T10:12:05;9.63;;;6.37;;
6840;SDS011;3458;53.678;14.080;2024-02-26T10:14:33;11.43;;;6.63;;
6840;SDS011;3458;53.678;14.080;2024-02-26T10:16:59;10.17;;;6.90;;
6840;SDS011;3458;53.678;14.080;2024-02-26T10:19:28;11.40;;;7.00;;
6840;SDS011;3458;53.678;14.080;2024-02-26T10:21:58;12.67;;;7.20;;
6840;SDS011;3458;53.678;14.080;2024-02-26T10:24:25;11.30;;;7.53;;
6840;SDS011;3458;53.678;14.080;2024-02-26T10:26:54;11.70;;;8.23;;
6840;SDS011;3458;53.678;14.080;2024-02-26T10:29:20;14.30;;;6.47;;
6840;SDS011;3458;53.678;14.080;2024-02-26T10:31:46;13.87;;;7.80;;
6840;SDS011;3458;53.678;14.080;2024-02-26T10:34:12;10.80;;;6.90;;
6840;SDS011;3458;53.678;14.080;2024-02-26T10:36:39;12.00;;;7.13;;
6840;SDS011;3458;53.678;14.080;2024-02-26T10:39:09;22.57;;;7.83;;
6840;SDS011;3458;53.678;14.080;2024-02-26T10:41:37;17.10;;;7.30;;
6840;SDS011;3458;53.678;14.080;2024-02-26T10:44:03;12.67;;;7.63;;
6840;SDS011;3458;53.678;14.080;2024-02-26T10:46:29;12.77;;;8.23;;
6840;SDS011;3458;53.678;14.080;2024-02-26T10:48:54;10.07;;;6.97;;
6840;SDS011;3458;53.678;14.080;2024-02-26T10:51:27;17.90;;;7.20;;
6840;SDS011;3458;53.678;14.080;2024-02-26T10:53:55;12.97;;;8.50;;
6840;SDS011;3458;53.678;14.080;2024-02-26T10:56:24;11.67;;;7.80;;
6840;SDS011;3458;53.678;14.080;2024-02-26T10:58:52;17.10;;;9.30;;
6840;SDS011;3458;53.678;14.080;2024-02-26T11:01:18;19.10;;;9.77;;
6840;SDS011;3458;53.678;14.080;2024-02-26T11:03:46;20.57;;;11.40;;
6840;SDS011;3458;53.678;14.080;2024-02-26T11:06:13;14.37;;;9.40;;
6840;SDS011;3458;53.678;14.080;2024-02-26T11:08:39;17.90;;;9.67;;
6840;SDS011;3458;53.678;14.080;2024-02-26T11:11:06;19.20;;;11.37;;
6840;SDS011;3458;53.678;14.080;2024-02-26T11:13:32;17.20;;;9.17;;
6840;SDS011;3458;53.678;14.080;2024-02-26T11:16:03;21.17;;;10.13;;
6840;SDS011;3458;53.678;14.080;2024-02-26T11:18:29;18.53;;;9.20;;
6840;SDS011;3458;53.678;14.080;2024-02-26T11:20:56;18.10;;;9.63;;
6840;SDS011;3458;53.678;14.080;2024-02-26T11:23:22;16.70;;;8.97;;
6840;SDS011;3458;53.678;14.080;2024-02-26T11:25:52;12.87;;;8.07;;
6840;SDS011;3458;53.678;14.080;2024-02-26T11:28:20;14.97;;;8.47;;
6840;SDS011;3458;53.678;14.080;2024-02-26T11:30:48;14.37;;;8.70;;
6840;SDS011;3458;53.678;14.080;2024-02-26T11:33:14;15.23;;;8.70;;
6840;SDS011;3458;53.678;14.080;2024-02-26T11:35:40;13.53;;;8.00;;
6840;SDS011;3458;53.678;14.080;2024-02-26T11:38:07;22.10;;;7.77;;
6840;SDS011;3458;53.678;14.080;2024-02-26T11:40:33;14.70;;;7.03;;
6840;SDS011;3458;53.678;14.080;2024-02-26T11:43:04;8.23;;;6.50;;
6840;SDS011;3458;53.678;14.080;2024-02-26T11:48:26;10.93;;;7.73;;
6840;SDS011;3458;53.678;14.080;2024-02-26T11:50:53;14.87;;;8.77;;
6840;SDS011;3458;53.678;14.080;2024-02-26T11:53:32;14.10;;;7.67;;
6840;SDS011;3458;53.678;14.080;2024-02-26T11:59:05;14.70;;;8.13;;
6840;SDS011;3458;53.678;14.080;2024-02-26T12:01:35;13.77;;;7.60;;
6840;SDS011;3458;53.678;14.080;2024-02-26T12:04:11;15.00;;;8.57;;
6840;SDS011;3458;53.678;14.080;2024-02-26T12:06:45;15.93;;;8.67;;
6840;SDS011;3458;53.678;14.080;2024-02-26T12:12:01;15.87;;;8.77;;
6840;SDS011;3458;53.678;14.080;2024-02-26T12:14:27;13.97;;;8.50;;
6840;SDS011;3458;53.678;14.080;2024-02-26T12:16:54;13.00;;;9.37;;
6840;SDS011;3458;53.678;14.080;2024-02-26T12:19:20;16.60;;;9.70;;
6840;SDS011;3458;53.678;14.080;2024-02-26T12:21:50;15.47;;;9.07;;
6840;SDS011;3458;53.678;14.080;2024-02-26T12:24:18;23.10;;;11.50;;
6840;SDS011;3458;53.678;14.080;2024-02-26T12:26:45;19.20;;;11.10;;
6840;SDS011;3458;53.678;14.080;2024-02-26T12:29:10;18.50;;;10.20;;
6840;SDS011;3458;53.678;14.080;2024-02-26T12:31:37;26.17;;;11.80;;
6840;SDS011;3458;53.678;14.080;2024-02-26T12:34:04;20.30;;;11.23;;
6840;SDS011;3458;53.678;14.080;2024-02-26T12:36:31;23.70;;;12.20;;
6840;SDS011;3458;53.678;14.080;2024-02-26T12:38:57;25.23;;;11.87;;
6840;SDS011;3458;53.678;14.080;2024-02-26T12:41:23;20.30;;;11.80;;
6840;SDS011;3458;53.678;14.080;2024-02-26T12:43:48;20.30;;;11.00;;
6840;SDS011;3458;53.678;14.080;2024-02-26T12:46:14;16.10;;;9.77;;
6840;SDS011;3458;53.678;14.080;2024-02-26T12:48:44;16.90;;;9.40;;
6840;SDS011;3458;53.678;14.080;2024-02-26T12:51:10;18.17;;;10.67;;
6840;SDS011;3458;53.678;14.080;2024-02-26T12:53:37;21.77;;;11.63;;
6840;SDS011;3458;53.678;14.080;2024-02-26T12:56:04;26.50;;;12.80;;
6840;SDS011;3458;53.678;14.080;2024-02-26T12:58:32;28.57;;;13.87;;
6840;SDS011;3458;53.678;14.080;2024-02-26T13:00:58;26.00;;;13.33;;
6840;SDS011;3458;53.678;14.080;2024-02-26T13:03:24;29.97;;;15.17;;
6840;SDS011;3458;53.678;14.080;2024-02-26T13:05:50;31.63;;;13.27;;
6840;SDS011;3458;53.678;14.080;2024-02-26T13:08:21;30.70;;;14.07;;
6840;SDS011;3458;53.678;14.080;2024-02-26T13:10:47;26.53;;;13.33;;
6840;SDS011;3458;53.678;14.080;2024-02-26T13:13:15;26.73;;;14.00;;
6840;SDS011;3458;53.678;14.080;2024-02-26T13:15:42;24.27;;;12.37;;
6840;SDS011;3458;53.678;14.080;2024-02-26T13:18:15;22.87;;;12.90;;
6840;SDS011;3458;53.678;14.080;2024-02-26T13:20:41;27.77;;;12.73;;
6840;SDS011;3458;53.678;14.080;2024-02-26T13:23:07;23.50;;;11.70;;
6840;SDS011;3458;53.678;14.080;2024-02-26T13:25:36;20.27;;;10.57;;
6840;SDS011;3458;53.678;14.080;2024-02-26T13:28:05;19.30;;;10.47;;
6840;SDS011;3458;53.678;14.080;2024-02-26T13:30:34;24.80;;;10.17;;
6840;SDS011;3458;53.678;14.080;2024-02-26T13:33:07;18.10;;;9.50;;
6840;SDS011;3458;53.678;14.080;2024-02-26T13:35:34;15.23;;;9.77;;
6840;SDS011;3458;53.678;14.080;2024-02-26T13:38:00;16.97;;;9.80;;
6840;SDS011;3458;53.678;14.080;2024-02-26T13:40:25;18.93;;;8.77;;
6840;SDS011;3458;53.678;14.080;2024-02-26T13:42:51;14.10;;;9.10;;
6840;SDS011;3458;53.678;14.080;2024-02-26T13:45:17;16.33;;;9.53;;
6840;SDS011;3458;53.678;14.080;2024-02-26T13:47:43;20.03;;;10.70;;
6840;SDS011;3458;53.678;14.080;2024-02-26T13:50:09;20.20;;;9.07;;
6840;SDS011;3458;53.678;14.080;2024-02-26T13:52:35;16.13;;;10.20;;
6840;SDS011;3458;53.678;14.080;2024-02-26T13:55:00;15.87;;;9.30;;
6840;SDS011;3458;53.678;14.080;2024-02-26T13:57:27;14.07;;;8.67;;
6840;SDS011;3458;53.678;14.080;2024-02-26T13:59:53;16.50;;;8.63;;
6840;SDS011;3458;53.678;14.080;2024-02-26T14:02:19;13.90;;;7.80;;
6840;SDS011;3458;53.678;14.080;2024-02-26T14:04:45;17.50;;;9.20;;
6840;SDS011;3458;53.678;14.080;2024-02-26T14:07:11;12.40;;;7.77;;
6840;SDS011;3458;53.678;14.080;2024-02-26T14:09:37;14.67;;;7.73;;
6840;SDS011;3458;53.678;14.080;2024-02-26T14:12:03;11.00;;;6.27;;
6840;SDS011;3458;53.678;14.080;2024-02-26T14:14:29;10.70;;;6.27;;
6840;SDS011;3458;53.678;14.080;2024-02-26T14:16:57;13.03;;;7.03;;
6840;SDS011;3458;53.678;14.080;2024-02-26T14:19:23;12.33;;;5.73;;
6840;SDS011;3458;53.678;14.080;2024-02-26T14:21:48;11.63;;;6.43;;
6840;SDS011;3458;53.678;14.080;2024-02-26T14:24:14;9.63;;;6.13;;
6840;SDS011;3458;53.678;14.080;2024-02-26T14:26:40;10.50;;;5.50;;
6840;SDS011;3458;53.678;14.080;2024-02-26T14:29:06;14.80;;;4.60;;
6840;SDS011;3458;53.678;14.080;2024-02-26T14:31:31;9.90;;;5.70;;
6840;SDS011;3458;53.678;14.080;2024-02-26T14:33:57;9.20;;;4.73;;
6840;SDS011;3458;53.678;14.080;2024-02-26T14:36:23;11.30;;;4.83;;
6840;SDS011;3458;53.678;14.080;2024-02-26T14:38:49;6.33;;;4.30;;
6840;SDS011;3458;53.678;14.080;2024-02-26T14:41:16;12.17;;;5.33;;
6840;SDS011;3458;53.678;14.080;2024-02-26T14:43:41;12.10;;;4.87;;
6840;SDS011;3458;53.678;14.080;2024-02-26T14:46:07;7.60;;;5.67;;
6840;SDS011;3458;53.678;14.080;2024-02-26T14:48:32;6.13;;;3.73;;
6840;SDS011;3458;53.678;14.080;2024-02-26T14:50:59;6.13;;;3.67;;
6840;SDS011;3458;53.678;14.080;2024-02-26T14:53:25;5.30;;;3.77;;
6840;SDS011;3458;53.678;14.080;2024-02-26T14:55:51;4.33;;;3.40;;